ADDS TAF Board INFO
 
 

IDs: Format: Expanded Condensed

KIAH - Houston/Bush Intl, TX, US

Issued at 1120 UTC 30 Jul 2014
Time1253Z30/14Z30/15Z30/16Z30/17Z30/18Z30/19Z30/20Z30/21Z30/22Z30/23Z31/00Z31/01Z31/02Z
TypeOBSPRVLPRVLPRVLPRVLPRVLPRVLPRVLPRVLPRVLPRVLPRVLPRVLPRVL
Vis10>6>6>6>6>6>6>6>6>6>6>6>6>6
Cig----------------------------
CoverSCTFEWSCTSCTSCTSCTSCTSCTSCTSCTSCTSCTSCTSCT
FltCat--VFRVFRVFRVFRVFRVFRVFRVFRVFRVFRVFRVFRVFR
Wx----------------------------
WDirVRBVRB150150150150150150150150150150150VRB
WSpd03777777777774
WGst----------------------------
R08/26
XWndVRBVRB-6-6-6-6-6-6-6-6-6-6-6VRB
HWndVRBVRB44444444444VRB
R09/27
XWndVRBVRB-6-6-6-6-6-6-6-6-6-6-6VRB
HWndVRBVRB44444444444VRB
R15/33
XWndVRBVRB00000000000VRB
HWndVRBVRB77777777777VRB
Raw TAF
KIAH 301120Z 3012/3118 VRB03KT P6SM FEW250
  FM301500 15007KT P6SM SCT050
  FM310200 VRB04KT P6SM SCT250
  FM311500 18006KT P6SM FEW030


Raw METAR
KIAH 301253Z 00000KT 10SM FEW025 SCT250 24/23 A3005 RMK AO2 SLP174 T02440233

TAF Board Legend

Hazard Green Yellow Red Magenta
Visibility (sm) >5 >2.99 >0.99 <=0.99
Ceiling (100 ft) >30 >9.99 >4.99 <=4.99
Wind Speed (kt) <10 <20 <30 >=30
Wind Gust (kt) <10 <20 <30 >=30
Weather No Wx Reported Light precipitation Moderate precipitation Heavy precipitation
Flight Category VFR MVFR IFR LIFR

Page loaded:  13:08 UTC  |   06:08 AM Pacific  |   07:08 AM Mountain  |   08:08 AM Central  |   09:08 AM Eastern

 

ADVISORIES

FORECASTS

FORECASTS

OBSERVATIONS

USER TOOLS

ABOUT US